Time;durP1;ratioP1;P1;durP2;ratioP2;P2;SDS_P1;SDS_P2;PMS_P1;PMS_P2;Temp;Humidity;BMP_temperature;BMP_pressure;BME280_temperature;BME280_humidity;BME280_pressure;Samples;Min_cycle;Max_cycle;Signal;HPM_P1;HPM_P2
2022/02/16 00:00:48;;;;;;;;;;;24.90;99.90;;;;;;5071995;28;20279;-71
2022/02/16 00:03:14;;;;;;;;;;;24.70;99.90;;;;;;5072091;28;19916;-72
2022/02/16 00:05:41;;;;;;;;;;;24.80;99.90;;;;;;5072212;28;19951;-72
2022/02/16 00:08:09;;;;;;;;;;;25.00;99.90;;;;;;5072025;28;19908;-72
2022/02/16 00:10:36;;;;;;;;;;;25.00;99.90;;;;;;5072268;28;20007;-71
2022/02/16 00:13:02;;;;;;;;;;;24.80;99.90;;;;;;5072273;28;20275;-71
2022/02/16 00:15:29;;;;;;;;;;;24.80;99.90;;;;;;5072402;28;19938;-72
2022/02/16 00:17:56;;;;;;;;;;;25.00;99.90;;;;;;5071617;28;19915;-72
2022/02/16 00:20:23;;;;;;;;;;;25.10;99.90;;;;;;5071959;28;19908;-72
2022/02/16 00:22:50;;;;;;;;;;;25.30;99.90;;;;;;5073747;28;19912;-72
2022/02/16 00:25:16;;;;;;;;;;;25.40;99.90;;;;;;5075945;28;19909;-72
2022/02/16 00:27:43;;;;;;;;;;;25.40;99.90;;;;;;5075852;28;19913;-72
2022/02/16 00:30:10;;;;;;;;;;;25.50;99.90;;;;;;5075763;28;19909;-72
2022/02/16 00:32:37;;;;;;;;;;;25.50;99.90;;;;;;5075863;28;19915;-71
2022/02/16 00:35:03;;;;;;;;;;;25.50;99.90;;;;;;5075753;28;19916;-72
2022/02/16 00:37:30;;;;;;;;;;;25.60;99.90;;;;;;5075691;28;19909;-71
2022/02/16 00:39:57;;;;;;;;;;;25.60;99.90;;;;;;5075480;28;19962;-71
2022/02/16 00:42:23;;;;;;;;;;;25.60;99.90;;;;;;5075698;28;19912;-71
2022/02/16 00:44:50;;;;;;;;;;;25.70;99.90;;;;;;5108236;28;19995;-71
2022/02/16 00:47:16;;;;;;;;;;;25.70;99.90;;;;;;5075333;28;19920;-71
2022/02/16 00:49:43;;;;;;;;;;;25.80;99.90;;;;;;5075706;28;19919;-71
2022/02/16 00:52:10;;;;;;;;;;;25.80;99.90;;;;;;5075385;28;20321;-71
2022/02/16 00:54:38;;;;;;;;;;;26.00;99.90;;;;;;5075445;28;19916;-72
2022/02/16 00:57:05;;;;;;;;;;;25.90;99.90;;;;;;5075383;28;19915;-72
2022/02/16 00:59:31;;;;;;;;;;;25.80;99.90;;;;;;5075258;28;19920;-72
2022/02/16 01:01:58;;;;;;;;;;;25.90;99.90;;;;;;5074882;28;20374;-72
2022/02/16 01:04:25;;;;;;;;;;;25.90;99.90;;;;;;5075189;28;20345;-71
2022/02/16 01:06:53;;;;;;;;;;;26.20;99.90;;;;;;5075348;28;19991;-72
2022/02/16 01:09:20;;;;;;;;;;;26.50;99.90;;;;;;5075100;28;19915;-72
2022/02/16 01:11:47;;;;;;;;;;;26.80;99.90;;;;;;5074741;28;20405;-72
2022/02/16 01:14:14;;;;;;;;;;;27.00;99.90;;;;;;5107741;28;19917;-72
2022/02/16 01:16:40;;;;;;;;;;;27.40;99.90;;;;;;5075110;28;19908;-72
2022/02/16 01:19:07;;;;;;;;;;;27.50;99.80;;;;;;5075123;28;19944;-72
2022/02/16 01:21:34;;;;;;;;;;;27.50;99.80;;;;;;5074822;28;19909;-72
2022/02/16 01:24:00;;;;;;;;;;;28.00;99.90;;;;;;5074670;28;19940;-72
2022/02/16 01:26:27;;;;;;;;;;;28.30;99.50;;;;;;5074848;28;19908;-72
2022/02/16 01:28:54;;;;;;;;;;;28.40;99.20;;;;;;5074609;28;19955;-72
2022/02/16 01:31:20;;;;;;;;;;;28.50;98.80;;;;;;5074659;28;19916;-73
2022/02/16 01:33:47;;;;;;;;;;;28.50;98.40;;;;;;5074421;28;19913;-72
2022/02/16 01:36:14;;;;;;;;;;;28.50;97.90;;;;;;5074903;28;19908;-72
2022/02/16 01:38:40;;;;;;;;;;;28.40;97.70;;;;;;5074653;28;19916;-73
2022/02/16 01:41:07;;;;;;;;;;;28.40;98.60;;;;;;5106910;28;19953;-72
2022/02/16 01:43:34;;;;;;;;;;;28.40;98.40;;;;;;5074378;28;19908;-73
2022/02/16 01:46:00;;;;;;;;;;;28.60;98.50;;;;;;5073854;28;19908;-73
2022/02/16 01:48:28;;;;;;;;;;;28.60;98.30;;;;;;5074431;28;19908;-73
2022/02/16 01:50:54;;;;;;;;;;;28.60;98.50;;;;;;5074277;28;20270;-73
2022/02/16 01:53:21;;;;;;;;;;;28.90;98.60;;;;;;5074462;28;19912;-73
2022/02/16 01:55:47;;;;;;;;;;;28.90;98.20;;;;;;5074205;28;19909;-73
2022/02/16 01:58:16;;;;;;;;;;;28.80;98.40;;;;;;5074357;28;20348;-73
2022/02/16 02:00:44;;;;;;;;;;;28.70;97.70;;;;;;5073980;28;20044;-73
2022/02/16 02:03:11;;;;;;;;;;;28.00;98.80;;;;;;5074013;28;19995;-73
2022/02/16 02:05:40;;;;;;;;;;;27.50;99.90;;;;;;5074308;28;19915;-73
2022/02/16 02:08:07;;;;;;;;;;;27.40;99.70;;;;;;5089518;28;20011;-72
2022/02/16 02:10:34;;;;;;;;;;;27.20;99.60;;;;;;5073985;28;19983;-73
2022/02/16 02:13:01;;;;;;;;;;;27.10;99.80;;;;;;5074041;28;19909;-73
2022/02/16 02:15:27;;;;;;;;;;;27.20;99.90;;;;;;5074038;28;19913;-73
2022/02/16 02:17:54;;;;;;;;;;;27.20;99.70;;;;;;5073644;28;19912;-73
2022/02/16 02:20:22;;;;;;;;;;;27.30;99.70;;;;;;5073733;28;19954;-74
2022/02/16 02:22:49;;;;;;;;;;;27.20;99.40;;;;;;5073550;28;19909;-71
2022/02/16 02:25:15;;;;;;;;;;;27.10;99.40;;;;;;5073707;28;19912;-72
2022/02/16 02:27:42;;;;;;;;;;;27.00;99.80;;;;;;5073680;28;19909;-72
2022/02/16 02:30:10;;;;;;;;;;;27.00;99.80;;;;;;5073292;28;19916;-72
2022/02/16 02:32:39;;;;;;;;;;;27.10;99.90;;;;;;5073302;28;19977;-72
2022/02/16 02:35:06;;;;;;;;;;;26.90;99.90;;;;;;5073405;28;19917;-72
2022/02/16 02:37:35;;;;;;;;;;;26.90;99.90;;;;;;5073475;28;19993;-72
2022/02/16 02:40:02;;;;;;;;;;;27.10;99.90;;;;;;5073097;28;19908;-72
2022/02/16 02:42:29;;;;;;;;;;;27.10;99.90;;;;;;5073563;28;19909;-72
2022/02/16 02:44:55;;;;;;;;;;;27.10;99.90;;;;;;5072841;28;19909;-72
2022/02/16 02:47:22;;;;;;;;;;;27.10;99.90;;;;;;5073100;28;19919;-72
2022/02/16 02:49:52;;;;;;;;;;;27.00;99.90;;;;;;5073276;28;19915;-72
2022/02/16 02:52:18;;;;;;;;;;;27.00;99.90;;;;;;5073193;28;19946;-72
2022/02/16 02:54:45;;;;;;;;;;;26.90;99.90;;;;;;5073047;28;19917;-72
2022/02/16 02:57:12;;;;;;;;;;;26.90;99.90;;;;;;5073021;28;19909;-72
2022/02/16 02:59:38;;;;;;;;;;;27.00;99.20;;;;;;5072773;28;19920;-72
2022/02/16 03:02:05;;;;;;;;;;;26.90;99.90;;;;;;5073058;28;20311;-72
2022/02/16 03:04:32;;;;;;;;;;;26.90;99.90;;;;;;5073155;28;20326;-72
2022/02/16 03:06:58;;;;;;;;;;;27.00;99.90;;;;;;5072774;28;19909;-72
2022/02/16 03:09:25;;;;;;;;;;;27.00;99.90;;;;;;5072932;28;20344;-72
2022/02/16 03:11:51;;;;;;;;;;;27.00;99.90;;;;;;5072630;28;19915;-72
2022/02/16 03:14:18;;;;;;;;;;;26.90;99.90;;;;;;5072875;28;19923;-72
2022/02/16 03:16:45;;;;;;;;;;;26.80;99.90;;;;;;5072729;28;20255;-73
2022/02/16 03:19:11;;;;;;;;;;;26.70;99.90;;;;;;5072707;28;19935;-72
2022/02/16 03:21:38;;;;;;;;;;;26.60;99.90;;;;;;5072847;28;19999;-72
2022/02/16 03:24:06;;;;;;;;;;;26.70;99.90;;;;;;5072630;28;19909;-72
2022/02/16 03:26:33;;;;;;;;;;;26.70;99.90;;;;;;5072620;28;19916;-72
2022/02/16 03:29:00;;;;;;;;;;;26.70;99.90;;;;;;5072549;28;19919;-71
2022/02/16 03:31:27;;;;;;;;;;;26.60;99.90;;;;;;5072421;28;19909;-72
2022/02/16 03:33:53;;;;;;;;;;;26.50;99.90;;;;;;5072203;28;19924;-72
2022/02/16 03:36:20;;;;;;;;;;;26.50;99.90;;;;;;5072498;28;20359;-71
2022/02/16 03:38:47;;;;;;;;;;;26.60;99.90;;;;;;5105107;28;20264;-73
2022/02/16 03:41:13;;;;;;;;;;;26.70;99.90;;;;;;5072480;28;20291;-73
2022/02/16 03:43:40;;;;;;;;;;;26.50;99.90;;;;;;5072577;28;20307;-72
2022/02/16 03:46:06;;;;;;;;;;;26.50;99.90;;;;;;5072183;28;19919;-72
2022/02/16 03:48:33;;;;;;;;;;;26.40;99.90;;;;;;5072297;28;20329;-72
2022/02/16 03:51:00;;;;;;;;;;;26.50;99.90;;;;;;5072247;28;19913;-72
2022/02/16 03:53:26;;;;;;;;;;;26.30;99.90;;;;;;5072330;28;20355;-72
2022/02/16 03:55:53;;;;;;;;;;;26.30;99.90;;;;;;5072130;28;19920;-73
2022/02/16 03:58:20;;;;;;;;;;;26.30;99.90;;;;;;5074940;28;19962;-72
2022/02/16 04:00:46;;;;;;;;;;;26.40;99.90;;;;;;5076043;28;19920;-72
2022/02/16 04:03:13;;;;;;;;;;;26.40;99.90;;;;;;5076541;28;19936;-73
2022/02/16 04:05:42;;;;;;;;;;;26.30;99.90;;;;;;5076652;28;20290;-73
2022/02/16 04:08:10;;;;;;;;;;;26.30;99.90;;;;;;5076034;28;19953;-73
2022/02/16 04:10:36;;;;;;;;;;;26.40;99.90;;;;;;5076460;28;19912;-72
2022/02/16 04:13:03;;;;;;;;;;;26.30;99.90;;;;;;5076003;28;19912;-71
2022/02/16 04:15:30;;;;;;;;;;;26.30;99.90;;;;;;5076107;28;19915;-72
2022/02/16 04:17:57;;;;;;;;;;;26.30;99.90;;;;;;5076062;28;19919;-72
2022/02/16 04:20:23;;;;;;;;;;;26.20;99.90;;;;;;5076022;28;19908;-72
2022/02/16 04:22:50;;;;;;;;;;;26.20;99.90;;;;;;5076153;28;19909;-72
2022/02/16 04:25:17;;;;;;;;;;;26.30;99.90;;;;;;5076093;28;19908;-71
2022/02/16 04:27:44;;;;;;;;;;;26.50;99.90;;;;;;5076105;28;19959;-72
2022/02/16 04:30:11;;;;;;;;;;;26.30;99.90;;;;;;5075785;28;19959;-71
2022/02/16 04:32:39;;;;;;;;;;;26.30;99.90;;;;;;5075856;28;19909;-71
2022/02/16 04:35:06;;;;;;;;;;;26.40;99.90;;;;;;5075609;28;20411;-71
2022/02/16 04:37:33;;;;;;;;;;;26.50;99.90;;;;;;5075846;28;19912;-71
2022/02/16 04:40:00;;;;;;;;;;;26.50;99.90;;;;;;5075583;28;19908;-71
2022/02/16 04:42:27;;;;;;;;;;;26.40;99.90;;;;;;5075614;28;20264;-72
2022/02/16 04:44:54;;;;;;;;;;;26.20;99.90;;;;;;5075647;28;19932;-72
2022/02/16 04:47:21;;;;;;;;;;;26.10;99.90;;;;;;5075432;28;19947;-72
2022/02/16 04:49:47;;;;;;;;;;;26.20;99.90;;;;;;5075054;28;19908;-70
2022/02/16 04:52:14;;;;;;;;;;;26.20;99.90;;;;;;5075517;28;19963;-73
2022/02/16 04:54:41;;;;;;;;;;;26.40;99.90;;;;;;5075316;28;19916;-72
2022/02/16 04:57:07;;;;;;;;;;;26.20;99.90;;;;;;5074153;28;20287;-73
2022/02/16 04:59:34;;;;;;;;;;;26.00;99.90;;;;;;5075374;28;20402;-73
2022/02/16 05:02:00;;;;;;;;;;;26.10;99.90;;;;;;5075171;28;19912;-72
2022/02/16 05:04:27;;;;;;;;;;;26.20;99.90;;;;;;5075335;28;19951;-72
2022/02/16 05:06:54;;;;;;;;;;;26.00;99.90;;;;;;5075509;28;20398;-73
2022/02/16 05:09:20;;;;;;;;;;;26.10;99.90;;;;;;5074751;28;19993;-72
2022/02/16 05:11:47;;;;;;;;;;;26.00;99.90;;;;;;5074984;28;19976;-72
2022/02/16 05:14:14;;;;;;;;;;;26.00;99.90;;;;;;5075121;28;20432;-72
2022/02/16 05:16:40;;;;;;;;;;;26.00;99.90;;;;;;5074799;28;19995;-73
2022/02/16 05:19:07;;;;;;;;;;;25.90;99.90;;;;;;5074854;28;19912;-72
2022/02/16 05:21:34;;;;;;;;;;;26.00;99.90;;;;;;5074890;28;19962;-72
2022/02/16 05:24:00;;;;;;;;;;;26.00;99.90;;;;;;5074711;28;19909;-73
2022/02/16 05:26:27;;;;;;;;;;;25.90;99.90;;;;;;5074902;28;19920;-72
2022/02/16 05:28:54;;;;;;;;;;;26.00;99.90;;;;;;5074931;28;20337;-72
2022/02/16 05:31:21;;;;;;;;;;;26.00;99.90;;;;;;5074773;28;20035;-72
2022/02/16 05:33:47;;;;;;;;;;;26.10;99.90;;;;;;5074463;28;19913;-72
2022/02/16 05:36:14;;;;;;;;;;;25.80;99.90;;;;;;5074681;28;19928;-72
2022/02/16 05:38:41;;;;;;;;;;;25.70;99.90;;;;;;5074694;28;19915;-73
2022/02/16 05:41:07;;;;;;;;;;;25.70;99.90;;;;;;5074409;28;19916;-72
2022/02/16 05:43:34;;;;;;;;;;;25.70;99.90;;;;;;5083586;28;19950;-73
2022/02/16 05:46:01;;;;;;;;;;;25.80;99.90;;;;;;5093885;28;19908;-73
2022/02/16 05:48:29;;;;;;;;;;;25.70;99.90;;;;;;5094743;28;19931;-72
2022/02/16 05:50:57;;;;;;;;;;;25.80;99.90;;;;;;5093409;28;20041;-72
2022/02/16 05:53:24;;;;;;;;;;;25.70;99.90;;;;;;5092303;28;19947;-73
2022/02/16 05:55:51;;;;;;;;;;;25.60;99.90;;;;;;5092281;28;19916;-72
2022/02/16 05:58:17;;;;;;;;;;;25.60;99.90;;;;;;5092291;28;20047;-72
2022/02/16 06:00:44;;;;;;;;;;;25.60;99.90;;;;;;5107336;28;20578;-72
2022/02/16 06:03:10;;;;;;;;;;;25.50;99.90;;;;;;5092211;28;20240;-72
2022/02/16 06:05:37;;;;;;;;;;;25.40;99.90;;;;;;5091750;28;19916;-72
2022/02/16 06:08:04;;;;;;;;;;;25.30;99.90;;;;;;5091989;28;20259;-72
2022/02/16 06:10:31;;;;;;;;;;;25.40;99.90;;;;;;5091946;28;19908;-72
2022/02/16 06:13:00;;;;;;;;;;;25.30;99.90;;;;;;5092030;28;19915;-72
2022/02/16 06:15:28;;;;;;;;;;;25.10;99.90;;;;;;5090136;28;19920;-71
2022/02/16 06:17:55;;;;;;;;;;;25.10;99.90;;;;;;5091179;28;19908;-72
2022/02/16 06:20:23;;;;;;;;;;;25.10;99.90;;;;;;5090852;28;20270;-72
2022/02/16 06:22:52;;;;;;;;;;;25.20;99.90;;;;;;5091895;28;19918;-72
2022/02/16 06:25:18;;;;;;;;;;;25.20;99.90;;;;;;5091852;28;20355;-72
2022/02/16 06:27:45;;;;;;;;;;;25.20;99.90;;;;;;5091683;28;19912;-72
2022/02/16 06:30:12;;;;;;;;;;;25.10;99.90;;;;;;5123696;27;19916;-72
2022/02/16 06:32:39;;;;;;;;;;;25.00;99.90;;;;;;5091693;28;20014;-72
2022/02/16 06:35:06;;;;;;;;;;;25.00;99.90;;;;;;5091470;28;19920;-72
2022/02/16 06:37:33;;;;;;;;;;;25.00;99.90;;;;;;5091403;28;19963;-72
2022/02/16 06:39:59;;;;;;;;;;;24.90;99.90;;;;;;5091346;28;19912;-72
2022/02/16 06:42:26;;;;;;;;;;;24.90;99.90;;;;;;5091466;28;19912;-71
2022/02/16 06:44:52;;;;;;;;;;;25.00;99.90;;;;;;5091079;28;19912;-72
2022/02/16 06:47:19;;;;;;;;;;;25.00;99.90;;;;;;5089829;28;19933;-72
2022/02/16 06:49:46;;;;;;;;;;;25.00;99.90;;;;;;5091295;28;19912;-71
2022/02/16 06:52:12;;;;;;;;;;;25.00;99.90;;;;;;5091435;28;19912;-72
2022/02/16 06:54:39;;;;;;;;;;;25.00;99.90;;;;;;5090981;28;19920;-72
2022/02/16 06:57:06;;;;;;;;;;;24.90;99.90;;;;;;5090509;28;19908;-72
2022/02/16 06:59:32;;;;;;;;;;;24.80;99.90;;;;;;5090691;28;20422;-72
2022/02/16 07:01:59;;;;;;;;;;;24.60;99.90;;;;;;5090574;28;19965;-72
2022/02/16 07:04:27;;;;;;;;;;;24.70;99.90;;;;;;5090771;28;19920;-72
2022/02/16 07:06:53;;;;;;;;;;;24.60;99.90;;;;;;5090951;28;19966;-71
2022/02/16 07:09:20;;;;;;;;;;;24.70;99.90;;;;;;5090626;28;19915;-72
2022/02/16 07:11:47;;;;;;;;;;;24.80;99.90;;;;;;5090937;28;19908;-72
2022/02/16 07:14:13;;;;;;;;;;;24.60;99.90;;;;;;5086564;28;20055;-72
2022/02/16 07:16:40;;;;;;;;;;;24.50;99.90;;;;;;5070281;28;19912;-72
2022/02/16 07:19:07;;;;;;;;;;;24.50;99.90;;;;;;5070346;28;20378;-73
2022/02/16 07:21:33;;;;;;;;;;;24.40;99.90;;;;;;5070438;28;19912;-72
2022/02/16 07:24:00;;;;;;;;;;;24.40;99.90;;;;;;5070240;28;19912;-73
2022/02/16 07:26:27;;;;;;;;;;;24.30;99.90;;;;;;5069710;28;19908;-72
2022/02/16 07:28:53;;;;;;;;;;;24.30;99.90;;;;;;5068609;28;19920;-74
2022/02/16 07:31:20;;;;;;;;;;;24.20;99.90;;;;;;5069774;28;19963;-73
2022/02/16 07:33:47;;;;;;;;;;;24.00;99.90;;;;;;5070070;28;19916;-72
2022/02/16 07:36:13;;;;;;;;;;;23.90;99.90;;;;;;5070065;28;19986;-72
2022/02/16 07:38:40;;;;;;;;;;;23.80;99.90;;;;;;5070155;28;19913;-70
2022/02/16 07:41:07;;;;;;;;;;;23.80;99.90;;;;;;5069547;28;19913;-70
2022/02/16 07:43:34;;;;;;;;;;;23.90;99.90;;;;;;5070591;28;20023;-70
2022/02/16 07:46:00;;;;;;;;;;;23.90;99.90;;;;;;5069719;28;19987;-72
2022/02/16 07:48:27;;;;;;;;;;;23.80;99.90;;;;;;5070265;28;19909;-72
2022/02/16 07:50:54;;;;;;;;;;;23.70;99.90;;;;;;5070212;28;19909;-72
2022/02/16 07:53:20;;;;;;;;;;;23.70;99.90;;;;;;5069793;28;19908;-72
2022/02/16 07:55:47;;;;;;;;;;;23.70;99.90;;;;;;5069357;28;19938;-72
2022/02/16 07:58:14;;;;;;;;;;;23.60;99.90;;;;;;5070040;28;19913;-72
2022/02/16 08:00:40;;;;;;;;;;;23.70;99.90;;;;;;5069425;28;19932;-72
2022/02/16 08:03:08;;;;;;;;;;;23.60;99.90;;;;;;5070148;28;19947;-71
2022/02/16 08:05:35;;;;;;;;;;;23.50;99.90;;;;;;5070909;28;19962;-72
2022/02/16 08:08:02;;;;;;;;;;;23.50;99.90;;;;;;5071680;28;19915;-72
2022/02/16 08:10:29;;;;;;;;;;;23.50;99.90;;;;;;5072128;28;19920;-72
2022/02/16 08:12:59;;;;;;;;;;;23.50;99.90;;;;;;5072230;28;19962;-72
2022/02/16 08:15:26;;;;;;;;;;;23.50;99.90;;;;;;5071808;28;19916;-73
2022/02/16 08:17:53;;;;;;;;;;;23.40;99.90;;;;;;5071960;28;19920;-72
2022/02/16 08:20:20;;;;;;;;;;;23.50;99.90;;;;;;5072028;28;20382;-72
2022/02/16 08:22:47;;;;;;;;;;;23.40;99.90;;;;;;5071797;28;20007;-71
2022/02/16 08:25:13;;;;;;;;;;;23.40;99.90;;;;;;5072077;28;19920;-72
2022/02/16 08:27:43;;;;;;;;;;;23.40;99.90;;;;;;5071803;28;19915;-72
2022/02/16 08:30:11;;;;;;;;;;;23.40;99.90;;;;;;5071749;28;19908;-71
2022/02/16 08:32:39;;;;;;;;;;;23.30;99.90;;;;;;5071910;28;19916;-72
2022/02/16 08:35:06;;;;;;;;;;;23.30;99.90;;;;;;5072066;28;19916;-71
2022/02/16 08:37:35;;;;;;;;;;;23.30;99.90;;;;;;5071743;28;19919;-71
2022/02/16 08:40:03;;;;;;;;;;;23.30;99.90;;;;;;5071787;28;19909;-71
2022/02/16 08:42:29;;;;;;;;;;;23.20;99.90;;;;;;5072081;28;19908;-72
2022/02/16 08:44:58;;;;;;;;;;;23.20;99.90;;;;;;5075046;28;19958;-72
2022/02/16 08:47:25;;;;;;;;;;;23.20;99.90;;;;;;5075649;28;19983;-71
2022/02/16 08:49:52;;;;;;;;;;;23.10;99.90;;;;;;5075347;28;19934;-71
2022/02/16 08:52:19;;;;;;;;;;;23.10;99.90;;;;;;5075592;28;19909;-71
2022/02/16 08:54:46;;;;;;;;;;;23.10;99.90;;;;;;5074930;28;19962;-71
2022/02/16 08:57:12;;;;;;;;;;;23.10;99.90;;;;;;5075233;28;19917;-71
2022/02/16 08:59:39;;;;;;;;;;;23.10;99.90;;;;;;5075219;28;19951;-72
2022/02/16 09:02:06;;;;;;;;;;;23.10;99.90;;;;;;5075328;28;19958;-71
2022/02/16 09:04:32;;;;;;;;;;;23.10;99.90;;;;;;5075492;28;19994;-71
2022/02/16 09:09:44;;;;;;;;;;;23.00;99.90;;;;;;5075530;28;20275;-72
2022/02/16 09:12:10;;;;;;;;;;;22.90;99.90;;;;;;5074754;28;19909;-72
2022/02/16 09:14:37;;;;;;;;;;;23.00;99.90;;;;;;5075055;28;20179;-72
2022/02/16 09:17:04;;;;;;;;;;;23.00;99.90;;;;;;5074991;28;19916;-72
2022/02/16 09:19:34;;;;;;;;;;;22.90;99.90;;;;;;5075409;28;20366;-72
2022/02/16 09:22:01;;;;;;;;;;;23.00;99.90;;;;;;5074336;28;19978;-72
2022/02/16 09:24:28;;;;;;;;;;;22.90;99.90;;;;;;5074769;28;19908;-72
2022/02/16 09:26:55;;;;;;;;;;;23.00;99.90;;;;;;5074896;28;19915;-72
2022/02/16 09:29:22;;;;;;;;;;;23.00;99.90;;;;;;5074496;28;19916;-71
2022/02/16 09:31:50;;;;;;;;;;;23.00;99.90;;;;;;5074457;28;19908;-71
2022/02/16 09:34:17;;;;;;;;;;;23.00;99.90;;;;;;5074621;28;19982;-71
2022/02/16 09:36:44;;;;;;;;;;;23.10;99.90;;;;;;5074055;28;19923;-72
2022/02/16 09:39:11;;;;;;;;;;;23.00;99.90;;;;;;5074885;28;19915;-72
2022/02/16 09:41:38;;;;;;;;;;;23.00;99.90;;;;;;5074590;28;20339;-72
2022/02/16 09:44:05;;;;;;;;;;;23.00;99.90;;;;;;5074224;28;19930;-71
2022/02/16 09:46:35;;;;;;;;;;;23.00;99.90;;;;;;5074439;28;19951;-72
2022/02/16 09:49:01;;;;;;;;;;;22.90;99.90;;;;;;5074357;28;19912;-71
2022/02/16 09:51:28;;;;;;;;;;;22.90;99.90;;;;;;5073942;28;19908;-71
2022/02/16 09:53:55;;;;;;;;;;;22.80;99.90;;;;;;5074140;28;20277;-71
2022/02/16 09:56:22;;;;;;;;;;;22.80;99.90;;;;;;5074340;28;19988;-71
2022/02/16 09:58:49;;;;;;;;;;;22.70;99.90;;;;;;5073876;28;19915;-72
2022/02/16 10:01:16;;;;;;;;;;;22.80;99.90;;;;;;5073846;28;20007;-71
2022/02/16 10:04:02;;;;;;;;;;;22.70;99.90;;;;;;5074235;28;19909;-71
2022/02/16 10:06:40;;;;;;;;;;;22.70;99.90;;;;;;5073124;28;19916;-72
2022/02/16 10:09:07;;;;;;;;;;;22.80;99.90;;;;;;5073958;28;20351;-72
2022/02/16 10:11:34;;;;;;;;;;;22.70;99.90;;;;;;5073866;28;20291;-72
2022/02/16 10:14:19;;;;;;;;;;;22.70;99.90;;;;;;5073617;28;20694;-72
2022/02/16 10:16:46;;;;;;;;;;;22.70;99.90;;;;;;5073841;28;19909;-72
2022/02/16 10:19:12;;;;;;;;;;;22.70;99.90;;;;;;5073778;28;19947;-72
2022/02/16 10:21:39;;;;;;;;;;;22.70;99.90;;;;;;5073234;28;19915;-71
2022/02/16 10:24:19;;;;;;;;;;;22.60;99.90;;;;;;5073232;28;20371;-71
2022/02/16 10:26:50;;;;;;;;;;;22.60;99.90;;;;;;5073685;28;20382;-72
2022/02/16 10:29:24;;;;;;;;;;;22.70;99.90;;;;;;5073589;28;19916;-71
2022/02/16 10:31:51;;;;;;;;;;;22.70;99.90;;;;;;5073581;28;19916;-72
2022/02/16 10:34:17;;;;;;;;;;;22.70;99.90;;;;;;5073146;28;20291;-72
2022/02/16 10:36:46;;;;;;;;;;;22.60;99.90;;;;;;5073424;28;19912;-72
2022/02/16 10:39:18;;;;;;;;;;;22.60;99.90;;;;;;5073369;28;19916;-72
2022/02/16 10:41:46;;;;;;;;;;;22.70;99.90;;;;;;5073447;28;20416;-72
2022/02/16 10:44:23;;;;;;;;;;;22.60;99.90;;;;;;5072989;28;19919;-72
2022/02/16 10:47:07;;;;;;;;;;;22.60;99.90;;;;;;5073488;28;19908;-72
2022/02/16 10:49:38;;;;;;;;;;;22.60;99.90;;;;;;5072623;28;19908;-72
2022/02/16 10:52:16;;;;;;;;;;;22.60;99.90;;;;;;5072932;28;20007;-72
2022/02/16 10:54:53;;;;;;;;;;;22.60;99.90;;;;;;5073036;28;20421;-72
2022/02/16 10:57:20;;;;;;;;;;;22.50;99.90;;;;;;5072725;28;19909;-72
2022/02/16 10:59:46;;;;;;;;;;;22.60;99.90;;;;;;5072287;28;19946;-72
2022/02/16 11:02:15;;;;;;;;;;;22.60;99.90;;;;;;5072802;28;19995;-72
2022/02/16 11:04:42;;;;;;;;;;;22.50;99.90;;;;;;5071938;28;19912;-72
2022/02/16 11:07:09;;;;;;;;;;;22.50;99.90;;;;;;5072293;28;20278;-72
2022/02/16 11:09:39;;;;;;;;;;;22.50;99.90;;;;;;5072806;28;19919;-71
2022/02/16 11:12:07;;;;;;;;;;;22.50;99.90;;;;;;5072417;28;19966;-71
2022/02/16 11:14:34;;;;;;;;;;;22.50;99.90;;;;;;5072166;28;19970;-72
2022/02/16 11:17:01;;;;;;;;;;;22.50;99.90;;;;;;5069658;28;19908;-72
2022/02/16 11:19:32;;;;;;;;;;;22.50;99.90;;;;;;5070780;28;20377;-72
2022/02/16 11:21:59;;;;;;;;;;;22.50;99.90;;;;;;5070547;28;19987;-71
2022/02/16 11:24:30;;;;;;;;;;;22.40;99.90;;;;;;5070675;28;19908;-72
2022/02/16 11:26:57;;;;;;;;;;;22.50;99.90;;;;;;5070610;28;19913;-72
2022/02/16 11:29:26;;;;;;;;;;;22.50;99.90;;;;;;5070109;28;20643;-72
2022/02/16 11:32:02;;;;;;;;;;;22.40;99.90;;;;;;5070242;28;19917;-72
2022/02/16 11:34:29;;;;;;;;;;;22.40;99.90;;;;;;5070469;28;19969;-71
2022/02/16 11:37:02;;;;;;;;;;;22.40;99.90;;;;;;5070504;28;20375;-72
2022/02/16 11:39:49;;;;;;;;;;;22.40;99.90;;;;;;5070400;28;20370;-72
2022/02/16 11:42:20;;;;;;;;;;;22.40;99.90;;;;;;5069953;28;20002;-72
2022/02/16 11:44:53;;;;;;;;;;;22.40;99.90;;;;;;5070221;28;19908;-72
2022/02/16 11:47:39;;;;;;;;;;;22.40;99.90;;;;;;5070452;28;20613;-72
2022/02/16 11:50:08;;;;;;;;;;;22.40;99.90;;;;;;5070185;28;19909;-72
2022/02/16 11:52:39;;;;;;;;;;;22.40;99.90;;;;;;5070487;28;19915;-72
2022/02/16 11:55:06;;;;;;;;;;;22.40;99.90;;;;;;5070179;28;19970;-72
2022/02/16 11:57:50;;;;;;;;;;;22.40;99.90;;;;;;5070386;28;19916;-72
2022/02/16 12:00:18;;;;;;;;;;;22.40;99.90;;;;;;5070048;28;19924;-73
2022/02/16 12:05:51;;;;;;;;;;;22.40;99.90;;;;;;5070236;28;20026;-72
2022/02/16 12:08:22;;;;;;;;;;;22.30;99.90;;;;;;5067549;28;20283;-72
2022/02/16 12:10:51;;;;;;;;;;;22.30;99.90;;;;;;5070033;28;19919;-72
2022/02/16 12:13:28;;;;;;;;;;;22.30;99.90;;;;;;5070193;28;19909;-72
2022/02/16 12:15:59;;;;;;;;;;;22.30;99.90;;;;;;5069971;28;20037;-71
2022/02/16 12:18:26;;;;;;;;;;;22.30;99.90;;;;;;5071027;28;19915;-72
2022/02/16 12:20:53;;;;;;;;;;;22.30;99.90;;;;;;5073740;28;19913;-72
2022/02/16 12:23:20;;;;;;;;;;;22.30;99.90;;;;;;5074047;28;19927;-72
2022/02/16 12:26:01;;;;;;;;;;;22.30;99.90;;;;;;5073984;28;19931;-71
2022/02/16 12:28:28;;;;;;;;;;;22.30;99.90;;;;;;5073912;28;19908;-72
2022/02/16 12:30:54;;;;;;;;;;;22.20;99.90;;;;;;5074075;28;20360;-72
2022/02/16 12:33:22;;;;;;;;;;;22.20;99.90;;;;;;5073762;28;19909;-72
2022/02/16 12:35:49;;;;;;;;;;;22.20;99.90;;;;;;5073423;28;19919;-72
2022/02/16 12:38:23;;;;;;;;;;;22.20;99.90;;;;;;5073941;28;19914;-72
2022/02/16 12:40:49;;;;;;;;;;;22.10;99.90;;;;;;5072391;28;19913;-72
2022/02/16 12:43:16;;;;;;;;;;;22.10;99.90;;;;;;5073749;28;20532;-71
2022/02/16 12:45:43;;;;;;;;;;;22.20;99.90;;;;;;5073768;28;20709;-72
2022/02/16 12:48:10;;;;;;;;;;;22.20;99.90;;;;;;5073081;28;20003;-71
2022/02/16 12:50:37;;;;;;;;;;;22.10;99.90;;;;;;5073575;28;20549;-71
2022/02/16 12:53:04;;;;;;;;;;;22.10;99.90;;;;;;5073645;28;19978;-72
2022/02/16 12:55:38;;;;;;;;;;;22.10;99.90;;;;;;5073477;28;19962;-72
2022/02/16 12:58:05;;;;;;;;;;;22.10;99.90;;;;;;5073152;28;20418;-71
2022/02/16 13:00:51;;;;;;;;;;;22.10;99.90;;;;;;5072786;28;20008;-71
2022/02/16 13:03:25;;;;;;;;;;;22.10;99.90;;;;;;5073531;28;20359;-71
2022/02/16 13:05:52;;;;;;;;;;;22.00;99.90;;;;;;5073098;28;19909;-71
2022/02/16 13:08:22;;;;;;;;;;;22.00;99.90;;;;;;5073389;28;19915;-71
2022/02/16 13:10:49;;;;;;;;;;;22.00;99.90;;;;;;5073398;28;19909;-72
2022/02/16 13:13:20;;;;;;;;;;;22.00;99.90;;;;;;5072711;28;20321;-72
2022/02/16 13:15:48;;;;;;;;;;;22.00;99.90;;;;;;5072997;28;19931;-72
2022/02/16 13:18:15;;;;;;;;;;;22.00;99.90;;;;;;5073053;28;20343;-72
2022/02/16 13:20:43;;;;;;;;;;;22.00;99.90;;;;;;5073005;28;19981;-71
2022/02/16 13:23:14;;;;;;;;;;;22.00;99.90;;;;;;5073071;28;19908;-71
2022/02/16 13:25:42;;;;;;;;;;;22.00;99.90;;;;;;5072960;28;19913;-72
2022/02/16 13:28:11;;;;;;;;;;;21.90;99.90;;;;;;5072148;28;19908;-72
2022/02/16 13:30:38;;;;;;;;;;;21.90;99.90;;;;;;5072552;28;20342;-72
2022/02/16 13:33:21;;;;;;;;;;;21.90;99.90;;;;;;5072893;28;19916;-72
2022/02/16 13:35:55;;;;;;;;;;;21.90;99.90;;;;;;5072570;28;20003;-73
2022/02/16 13:38:23;;;;;;;;;;;21.90;99.90;;;;;;5072870;28;19931;-72
2022/02/16 13:40:58;;;;;;;;;;;21.90;99.90;;;;;;5072375;28;20321;-72
2022/02/16 13:43:26;;;;;;;;;;;21.90;99.90;;;;;;5072688;28;19943;-73
2022/02/16 13:46:01;;;;;;;;;;;21.90;99.90;;;;;;5072418;28;19993;-73
2022/02/16 13:48:28;;;;;;;;;;;21.90;99.90;;;;;;5072394;28;19912;-73
2022/02/16 13:50:56;;;;;;;;;;;21.80;99.90;;;;;;5072733;28;19908;-73
2022/02/16 13:53:31;;;;;;;;;;;21.80;99.90;;;;;;5072138;28;19940;-73
2022/02/16 13:55:58;;;;;;;;;;;21.80;99.90;;;;;;5072248;28;19916;-73
2022/02/16 13:58:27;;;;;;;;;;;21.80;99.90;;;;;;5072424;28;19909;-73
2022/02/16 14:01:01;;;;;;;;;;;21.80;99.90;;;;;;5072266;28;19935;-73
2022/02/16 14:03:27;;;;;;;;;;;21.80;99.90;;;;;;5072444;28;19912;-73
2022/02/16 14:05:54;;;;;;;;;;;21.80;99.90;;;;;;5071702;28;19913;-73
2022/02/16 14:08:21;;;;;;;;;;;21.80;99.90;;;;;;5072102;28;19918;-72
2022/02/16 14:10:48;;;;;;;;;;;21.80;99.90;;;;;;5072152;28;19908;-72
2022/02/16 14:13:14;;;;;;;;;;;21.70;99.90;;;;;;5071889;28;19913;-73
2022/02/16 14:15:41;;;;;;;;;;;21.80;99.90;;;;;;5072037;28;19916;-73
2022/02/16 14:18:08;;;;;;;;;;;21.80;99.90;;;;;;5071740;28;19909;-73
2022/02/16 14:20:34;;;;;;;;;;;21.80;99.90;;;;;;5071571;28;19909;-73
2022/02/16 14:23:02;;;;;;;;;;;21.80;99.90;;;;;;5072062;28;19913;-72
2022/02/16 14:25:28;;;;;;;;;;;21.80;99.90;;;;;;5071887;28;19924;-73